Fargo, North Dakota
Current Conditions -  °F | °C
As of 6:53 AM on Monday 20 Oct 2014 (Local Time) from KFAR Reporting Station
Clear Clear  
Wind Chill: 34°   Ceiling: Unl
Heat Index: 39°   Visibility: 10mi
Dew Point: 35°   Wind: 7mph
Humidity: 86%   Direction: 330°NNW
Pressure: 30.03"   Gusts: NA
Location:  46.88°N, 96.78°W
Report Text: KFAR 201153Z 33006KT 10SM CLR 04/02 A3003 RMK AO2 SLP175 T00390017 10072 20022 51018
Loading
Personal Weather Stations






























Interactive Weather Map New forecast layout! Learn more

10-Day Weather Forecast

Advertisements
Track Severe Weather on mobile